Sumneytown, Pennsylvania
Current Conditions -  °F | °C
As of 11:10 AM on Monday 26 Jan 2015 (Local Time) from KPTW Reporting Station
Light Snow Light Snow  
Wind Chill: 11°   Ceiling: 2000
Heat Index: 22°   Visibility: 2mi
Dew Point: 17°   Wind: 10mph
Humidity: 82%   Direction: 60°ENE
Pressure: 29.89"   Gusts: NA
Location:  40.33°N, 75.45°W
Report Text: KPTW 261610Z AUTO 06009KT 2SM -SN BKN020 OVC033 M06/M08 A2989 RMK AO2 P0000 T10561083
Loading
Personal Weather Stations






























Interactive Weather Map New forecast layout! Learn more

10-Day Weather Forecast

Advertisements
Track Severe Weather on mobile